sensor_id;sensor_type;location;lat;lon;timestamp;temperature;humidity
57719;DHT22;43561;50.090;18.522;2023-02-22T00:03:35;4.30;99.90
57719;DHT22;43561;50.090;18.522;2023-02-22T00:13:37;4.20;99.90
57719;DHT22;43561;50.090;18.522;2023-02-22T00:23:44;4.10;99.90
57719;DHT22;43561;50.090;18.522;2023-02-22T00:33:46;4.00;99.90
57719;DHT22;43561;50.090;18.522;2023-02-22T00:43:48;3.90;99.90
57719;DHT22;43561;50.090;18.522;2023-02-22T00:53:50;3.60;99.90
57719;DHT22;43561;50.090;18.522;2023-02-22T01:03:52;3.40;99.90
57719;DHT22;43561;50.090;18.522;2023-02-22T01:13:54;3.30;99.90
57719;DHT22;43561;50.090;18.522;2023-02-22T01:23:56;3.10;99.90
57719;DHT22;43561;50.090;18.522;2023-02-22T01:33:59;3.00;99.90
57719;DHT22;43561;50.090;18.522;2023-02-22T01:54:32;2.70;99.90
57719;DHT22;43561;50.090;18.522;2023-02-22T02:04:36;2.90;99.90
57719;DHT22;43561;50.090;18.522;2023-02-22T02:14:41;2.90;99.90
57719;DHT22;43561;50.090;18.522;2023-02-22T02:35:20;2.90;99.90
57719;DHT22;43561;50.090;18.522;2023-02-22T02:45:31;2.80;99.90
57719;DHT22;43561;50.090;18.522;2023-02-22T02:55:34;2.80;99.90
57719;DHT22;43561;50.090;18.522;2023-02-22T03:26:18;3.50;99.90
57719;DHT22;43561;50.090;18.522;2023-02-22T03:36:32;3.50;99.90
57719;DHT22;43561;50.090;18.522;2023-02-22T03:46:35;3.40;99.90
57719;DHT22;43561;50.090;18.522;2023-02-22T03:56:44;3.40;99.90
57719;DHT22;43561;50.090;18.522;2023-02-22T04:07:01;3.40;99.90
57719;DHT22;43561;50.090;18.522;2023-02-22T04:17:22;3.30;99.90
57719;DHT22;43561;50.090;18.522;2023-02-22T04:27:24;3.10;99.90
57719;DHT22;43561;50.090;18.522;2023-02-22T04:37:29;3.00;99.90
57719;DHT22;43561;50.090;18.522;2023-02-22T04:47:31;3.00;99.90
57719;DHT22;43561;50.090;18.522;2023-02-22T04:57:33;2.80;99.90
57719;DHT22;43561;50.090;18.522;2023-02-22T05:07:35;2.90;99.90
57719;DHT22;43561;50.090;18.522;2023-02-22T05:17:38;2.90;99.90
57719;DHT22;43561;50.090;18.522;2023-02-22T05:27:40;2.70;99.90
57719;DHT22;43561;50.090;18.522;2023-02-22T05:37:42;2.60;99.90
57719;DHT22;43561;50.090;18.522;2023-02-22T05:47:44;2.40;99.90
57719;DHT22;43561;50.090;18.522;2023-02-22T05:57:53;2.50;99.90
57719;DHT22;43561;50.090;18.522;2023-02-22T06:07:56;2.50;99.90
57719;DHT22;43561;50.090;18.522;2023-02-22T06:18:00;2.50;99.90
57719;DHT22;43561;50.090;18.522;2023-02-22T06:28:02;2.40;99.90
57719;DHT22;43561;50.090;18.522;2023-02-22T06:38:04;2.50;99.90
57719;DHT22;43561;50.090;18.522;2023-02-22T06:48:06;3.00;99.90
57719;DHT22;43561;50.090;18.522;2023-02-22T06:58:08;3.70;99.90
57719;DHT22;43561;50.090;18.522;2023-02-22T07:08:14;3.90;99.90
57719;DHT22;43561;50.090;18.522;2023-02-22T07:18:18;4.60;99.90
57719;DHT22;43561;50.090;18.522;2023-02-22T07:28:31;5.10;99.90
57719;DHT22;43561;50.090;18.522;2023-02-22T07:38:43;6.40;99.90
57719;DHT22;43561;50.090;18.522;2023-02-22T07:48:52;6.30;99.90
57719;DHT22;43561;50.090;18.522;2023-02-22T07:58:54;6.40;99.90
57719;DHT22;43561;50.090;18.522;2023-02-22T08:08:57;6.30;99.90
57719;DHT22;43561;50.090;18.522;2023-02-22T08:18:59;6.10;99.90
57719;DHT22;43561;50.090;18.522;2023-02-22T08:29:01;6.70;99.90
57719;DHT22;43561;50.090;18.522;2023-02-22T08:39:03;6.70;99.90
57719;DHT22;43561;50.090;18.522;2023-02-22T08:49:05;6.50;99.90
57719;DHT22;43561;50.090;18.522;2023-02-22T08:59:11;6.90;99.90
57719;DHT22;43561;50.090;18.522;2023-02-22T09:09:19;6.90;99.90
57719;DHT22;43561;50.090;18.522;2023-02-22T09:19:40;6.90;99.90
57719;DHT22;43561;50.090;18.522;2023-02-22T09:29:43;7.00;99.90
57719;DHT22;43561;50.090;18.522;2023-02-22T09:39:48;6.80;99.90
57719;DHT22;43561;50.090;18.522;2023-02-22T09:49:57;7.10;99.90
57719;DHT22;43561;50.090;18.522;2023-02-22T10:00:06;7.50;99.90
57719;DHT22;43561;50.090;18.522;2023-02-22T10:10:17;8.20;99.90
57719;DHT22;43561;50.090;18.522;2023-02-22T10:30:40;7.90;99.90
57719;DHT22;43561;50.090;18.522;2023-02-22T10:40:52;8.10;99.90
57719;DHT22;43561;50.090;18.522;2023-02-22T10:51:00;8.40;99.90
57719;DHT22;43561;50.090;18.522;2023-02-22T11:01:23;8.60;99.90
57719;DHT22;43561;50.090;18.522;2023-02-22T11:11:26;8.00;99.90
57719;DHT22;43561;50.090;18.522;2023-02-22T11:21:29;8.00;99.90
57719;DHT22;43561;50.090;18.522;2023-02-22T11:31:41;8.00;99.90
57719;DHT22;43561;50.090;18.522;2023-02-22T11:41:44;8.00;99.90
57719;DHT22;43561;50.090;18.522;2023-02-22T11:51:55;7.90;99.90
57719;DHT22;43561;50.090;18.522;2023-02-22T12:23:18;8.50;99.30
57719;DHT22;43561;50.090;18.522;2023-02-22T12:33:26;8.60;99.30
57719;DHT22;43561;50.090;18.522;2023-02-22T12:53:52;8.40;99.30
57719;DHT22;43561;50.090;18.522;2023-02-22T13:03:57;8.30;98.70
57719;DHT22;43561;50.090;18.522;2023-02-22T13:14:48;8.50;99.10
57719;DHT22;43561;50.090;18.522;2023-02-22T13:25:08;8.40;98.70
57719;DHT22;43561;50.090;18.522;2023-02-22T13:55:32;8.30;99.70
57719;DHT22;43561;50.090;18.522;2023-02-22T14:26:30;8.40;99.40
57719;DHT22;43561;50.090;18.522;2023-02-22T14:36:55;8.50;99.80
57719;DHT22;43561;50.090;18.522;2023-02-22T14:47:03;8.40;99.90
57719;DHT22;43561;50.090;18.522;2023-02-22T14:57:29;8.20;99.60
57719;DHT22;43561;50.090;18.522;2023-02-22T15:07:35;8.20;99.80
57719;DHT22;43561;50.090;18.522;2023-02-22T15:17:37;8.10;99.90
57719;DHT22;43561;50.090;18.522;2023-02-22T15:27:41;8.00;99.90
57719;DHT22;43561;50.090;18.522;2023-02-22T15:37:45;7.80;99.90
57719;DHT22;43561;50.090;18.522;2023-02-22T15:47:48;7.60;99.90
57719;DHT22;43561;50.090;18.522;2023-02-22T15:57:50;7.40;99.90
57719;DHT22;43561;50.090;18.522;2023-02-22T16:07:52;7.20;99.90
57719;DHT22;43561;50.090;18.522;2023-02-22T16:17:54;7.10;99.90
57719;DHT22;43561;50.090;18.522;2023-02-22T16:28:27;6.90;99.90
57719;DHT22;43561;50.090;18.522;2023-02-22T16:38:31;6.60;99.90
57719;DHT22;43561;50.090;18.522;2023-02-22T16:48:34;6.50;99.90
57719;DHT22;43561;50.090;18.522;2023-02-22T16:58:37;6.20;99.90
57719;DHT22;43561;50.090;18.522;2023-02-22T17:08:43;6.10;99.90
57719;DHT22;43561;50.090;18.522;2023-02-22T17:18:45;6.10;99.90
57719;DHT22;43561;50.090;18.522;2023-02-22T17:28:47;5.90;99.90
57719;DHT22;43561;50.090;18.522;2023-02-22T17:38:49;6.00;99.90
57719;DHT22;43561;50.090;18.522;2023-02-22T17:48:51;6.00;99.90
57719;DHT22;43561;50.090;18.522;2023-02-22T17:58:54;5.90;99.90
57719;DHT22;43561;50.090;18.522;2023-02-22T18:08:58;5.70;99.90
57719;DHT22;43561;50.090;18.522;2023-02-22T18:19:00;5.70;99.90
57719;DHT22;43561;50.090;18.522;2023-02-22T18:29:02;5.70;99.90
57719;DHT22;43561;50.090;18.522;2023-02-22T18:39:04;5.60;99.90
57719;DHT22;43561;50.090;18.522;2023-02-22T18:49:08;5.60;99.90
57719;DHT22;43561;50.090;18.522;2023-02-22T18:59:11;5.50;99.90
57719;DHT22;43561;50.090;18.522;2023-02-22T19:09:13;5.40;99.90
57719;DHT22;43561;50.090;18.522;2023-02-22T19:19:16;5.30;99.90
57719;DHT22;43561;50.090;18.522;2023-02-22T19:29:19;5.20;99.90
57719;DHT22;43561;50.090;18.522;2023-02-22T19:39:21;5.10;99.90
57719;DHT22;43561;50.090;18.522;2023-02-22T19:49:33;5.00;99.90
57719;DHT22;43561;50.090;18.522;2023-02-22T19:59:34;5.00;99.90
57719;DHT22;43561;50.090;18.522;2023-02-22T20:09:36;5.00;99.90
57719;DHT22;43561;50.090;18.522;2023-02-22T20:19:38;4.80;99.90
57719;DHT22;43561;50.090;18.522;2023-02-22T20:29:40;4.80;99.90
57719;DHT22;43561;50.090;18.522;2023-02-22T20:39:42;4.80;99.90
57719;DHT22;43561;50.090;18.522;2023-02-22T20:49:44;4.70;99.90
57719;DHT22;43561;50.090;18.522;2023-02-22T20:59:46;4.60;99.90
57719;DHT22;43561;50.090;18.522;2023-02-22T21:09:48;4.50;99.90
57719;DHT22;43561;50.090;18.522;2023-02-22T21:19:50;4.30;99.90
57719;DHT22;43561;50.090;18.522;2023-02-22T21:29:54;4.00;99.90
57719;DHT22;43561;50.090;18.522;2023-02-22T21:39:56;3.90;99.90
57719;DHT22;43561;50.090;18.522;2023-02-22T21:49:58;3.60;99.90
57719;DHT22;43561;50.090;18.522;2023-02-22T22:00:00;3.40;99.90
57719;DHT22;43561;50.090;18.522;2023-02-22T22:10:02;3.40;99.90
57719;DHT22;43561;50.090;18.522;2023-02-22T22:20:04;3.30;99.90
57719;DHT22;43561;50.090;18.522;2023-02-22T22:30:07;3.20;99.90
57719;DHT22;43561;50.090;18.522;2023-02-22T22:40:10;3.10;99.90
57719;DHT22;43561;50.090;18.522;2023-02-22T22:50:14;2.90;99.90
57719;DHT22;43561;50.090;18.522;2023-02-22T23:00:16;2.70;99.90
57719;DHT22;43561;50.090;18.522;2023-02-22T23:10:18;2.50;99.90
57719;DHT22;43561;50.090;18.522;2023-02-22T23:20:22;2.40;99.90
57719;DHT22;43561;50.090;18.522;2023-02-22T23:30:25;2.30;99.90
57719;DHT22;43561;50.090;18.522;2023-02-22T23:40:27;2.10;99.90
57719;DHT22;43561;50.090;18.522;2023-02-22T23:50:30;2.00;99.90
